Aérodrome :
LOGIN :

S'inscrire | Disclaimer

   EN    FR    IT 

 










Légende :    VFR   VFR Marginal   IFR   IFR Intensif   IFR Très Intensif
Visi : 
Plafond : 
>= 8 km
>= 3000ft
5 à 8 km
1000 à 3000 ft
1500m à 5 km
500 à 1000 ft
800 à 1500m
200 à 500 ft
< 800m
< 200 ft
Symboles :   Orages  Brouillard  Fortes neiges  Fortes précipitations  Vent > 20 kt
SIGMETs :   Divers  Orages  Givrage  Turbulence  Onde Orograph.  Cendres Volcan.






- Altitude de l'aérodrome : 119 ft
- Code IATA : WAT


EIWF - Waterford

DERNIER METAR :
  • 011030Z VRB03KT 9999 BKN006 08/08 Q1031 R21/1/////

METARs EXPIRÉS :
  • 011000Z 00000KT 9999 FEW011 BKN015 08/07 Q1030 R21/1/////
  • 010930Z 16001KT 9999 BKN015 07/06 Q1031 R21/1/////
  • 010900Z VRB02KT 9999 SCT015 BKN110 07/06 Q1030 R03/1/////
  • 010830Z 36003KT 9999 SCT019 BKN110 07/06 Q1030 R03/1/////
  • 010800Z 35003KT 9999 SCT019 BKN090 06/06 Q1030 R03/1/////

TAF TAF EIWF
Valide du 01 à 09h jusqu'au 01 à 18h UTC


010800Z 0109/0118 VRB03KT 9999 BKN025
BECMG 0110/0112 BKN012
TEMPO 0112/0118 4000 -DZ BR BKN007
ATIS : +353 51 877 000



MET'MAP, la Météo Aéronautique d'un coup d'oeil ! - Copyright ORBIFLY Décembre 2007 - Disclaimer

ORBIFLY MET'MAP TEAM :

Programmation & Développement : Alexandra Zaïnal
Sur une idée originale de : Baudouin d'Aumeries
Assistance à la programmation : Marc-Olivier Méhu
Soutien technique & logistique : Manuel Goepfert

Contact : metmap@orbifly.com




SOURCES & CREDITS :

   NOAA